Time;durP1;ratioP1;P1;durP2;ratioP2;P2;SDS_P1;SDS_P2;PMS_P1;PMS_P2;Temp;Humidity;BMP_temperature;BMP_pressure;BME280_temperature;BME280_humidity;BME280_pressure;Samples;Min_cycle;Max_cycle;Signal;HPM_P1;HPM_P2
2022/11/03 00:01:07;;;;;;;0.10;0.10;;;8.90;99.90;;;;;;4745636;24;20064;-77
2022/11/03 00:03:33;;;;;;;0.13;0.13;;;8.90;99.90;;;;;;4739268;30;20050;-77
2022/11/03 00:06:05;;;;;;;0.10;0.10;;;8.90;99.90;;;;;;4736601;30;20033;-77
2022/11/03 00:08:42;;;;;;;0.10;0.10;;;8.90;99.90;;;;;;4734863;30;20020;-76
2022/11/03 00:11:13;;;;;;;0.00;0.00;;;8.90;99.90;;;;;;4717608;30;20119;-76
2022/11/03 00:13:41;;;;;;;0.00;0.00;;;8.80;99.90;;;;;;4718372;30;20044;-76
2022/11/03 00:16:09;;;;;;;0.03;0.03;;;8.80;99.90;;;;;;4737068;30;20068;-76
2022/11/03 00:18:54;;;;;;;0.10;0.10;;;8.80;99.90;;;;;;4734679;30;20292;-76
2022/11/03 00:21:20;;;;;;;0.10;0.10;;;8.80;99.90;;;;;;4737712;30;20067;-76
2022/11/03 00:23:45;;;;;;;0.10;0.10;;;8.70;99.90;;;;;;4719848;30;20038;-76
2022/11/03 00:26:23;;;;;;;0.30;0.30;;;8.70;99.90;;;;;;4736349;30;20620;-76
2022/11/03 00:28:54;;;;;;;3.85;3.70;;;8.70;99.90;;;;;;4735324;30;20060;-76
2022/11/03 00:31:36;;;;;;;0.10;0.10;;;8.60;99.90;;;;;;4720956;30;20040;-76
2022/11/03 00:34:03;;;;;;;0.10;0.10;;;8.50;99.90;;;;;;4736497;30;20033;-76
2022/11/03 00:36:33;;;;;;;0.10;0.10;;;8.50;99.90;;;;;;4732536;30;20558;-77
2022/11/03 00:38:59;;;;;;;0.10;0.10;;;8.50;99.90;;;;;;4720564;30;20024;-76
2022/11/03 00:41:46;;;;;;;0.10;0.10;;;8.50;99.90;;;;;;4720809;30;20044;-76
2022/11/03 00:44:12;;;;;;;0.00;0.00;;;8.60;99.90;;;;;;4718873;30;20037;-76
2022/11/03 00:46:38;;;;;;;1.42;1.42;;;8.50;99.90;;;;;;4719293;30;20056;-77
2022/11/03 00:49:05;;;;;;;0.00;0.00;;;8.50;99.90;;;;;;4718291;30;20022;-77
2022/11/03 00:51:33;;;;;;;0.10;0.10;;;8.50;99.90;;;;;;4716742;30;20041;-75
2022/11/03 00:54:03;;;;;;;0.10;0.10;;;8.50;99.90;;;;;;4720914;30;20060;-76
2022/11/03 00:56:36;;;;;;;0.00;0.00;;;8.50;99.90;;;;;;4720307;30;20033;-78
2022/11/03 01:02:02;;;;;;;0.73;0.73;;;8.40;99.90;;;;;;5115175;27;20388;-77
2022/11/03 01:07:18;;;;;;;0.10;0.10;;;8.50;99.90;;;;;;5116163;28;20028;-77
2022/11/03 01:09:46;;;;;;;0.00;0.00;;;8.50;99.90;;;;;;5115975;28;20024;-78
2022/11/03 01:12:17;;;;;;;0.00;0.00;;;8.30;99.90;;;;;;5114355;28;20024;-77
2022/11/03 01:14:59;;;;;;;0.63;0.63;;;8.40;99.90;;;;;;5114948;28;20032;-77
2022/11/03 01:17:27;;;;;;;0.20;0.20;;;8.30;99.90;;;;;;5116324;28;20028;-77
2022/11/03 01:19:53;;;;;;;2.30;2.10;;;8.30;99.90;;;;;;5116817;28;20015;-77
2022/11/03 01:22:20;;;;;;;0.00;0.00;;;8.30;99.90;;;;;;5115774;28;20067;-77
2022/11/03 01:24:47;;;;;;;0.00;0.00;;;8.20;99.90;;;;;;5116506;28;20223;-77
2022/11/03 01:27:16;;;;;;;0.00;0.00;;;8.20;99.90;;;;;;5115565;28;20019;-76
2022/11/03 01:29:45;;;;;;;0.10;0.10;;;8.30;99.90;;;;;;5116589;28;20767;-76
2022/11/03 01:32:11;;;;;;;0.10;0.10;;;8.30;99.90;;;;;;5116545;28;20047;-77
2022/11/03 01:34:38;;;;;;;0.10;0.10;;;8.30;99.90;;;;;;5115512;28;20101;-75
2022/11/03 01:37:04;;;;;;;0.00;0.00;;;8.30;99.90;;;;;;5114815;28;20103;-76
2022/11/03 01:39:30;;;;;;;0.30;0.30;;;8.30;99.90;;;;;;5115406;28;20004;-75
2022/11/03 01:41:55;;;;;;;0.90;0.88;;;8.30;99.90;;;;;;5111932;28;20067;-75
2022/11/03 01:44:21;;;;;;;0.03;0.03;;;8.40;99.90;;;;;;5114723;28;20030;-77
2022/11/03 01:46:48;;;;;;;0.10;0.10;;;8.50;99.90;;;;;;5121923;28;20552;-75
2022/11/03 01:49:34;;;;;;;0.10;0.10;;;8.50;99.90;;;;;;5121844;28;20034;-76
2022/11/03 01:52:44;;;;;;;0.00;0.00;;;8.50;99.90;;;;;;5122385;28;20014;-76
2022/11/03 01:55:14;;;;;;;0.00;0.00;;;8.50;99.90;;;;;;5123609;28;20028;-75
2022/11/03 01:57:56;;;;;;;0.00;0.00;;;8.50;99.90;;;;;;5117477;28;20042;-75
2022/11/03 02:00:22;;;;;;;0.10;0.10;;;8.30;99.90;;;;;;5118009;28;20052;-76
2022/11/03 02:02:51;;;;;;;0.00;0.00;;;8.20;99.90;;;;;;5117392;28;20105;-77
2022/11/03 02:05:34;;;;;;;1.13;0.73;;;8.70;99.90;;;;;;5115870;28;20007;-77
2022/11/03 02:08:12;;;;;;;0.00;0.00;;;8.10;99.90;;;;;;5118778;28;20012;-76
2022/11/03 02:10:39;;;;;;;0.00;0.00;;;8.10;99.90;;;;;;5118120;28;20008;-77
2022/11/03 02:13:27;;;;;;;0.00;0.00;;;8.10;99.90;;;;;;5106319;28;20020;-77
2022/11/03 02:16:13;;;;;;;0.00;0.00;;;8.00;99.90;;;;;;5103177;28;20079;-76
2022/11/03 02:18:40;;;;;;;0.10;0.10;;;8.00;99.90;;;;;;5098080;28;20020;-76
2022/11/03 02:21:18;;;;;;;0.10;0.10;;;8.00;99.90;;;;;;5102176;28;20047;-76
2022/11/03 02:23:48;;;;;;;0.00;0.00;;;8.00;99.90;;;;;;5102983;28;20031;-77
2022/11/03 02:26:15;;;;;;;0.00;0.00;;;7.90;99.90;;;;;;5102526;28;20718;-77
2022/11/03 02:28:41;;;;;;;0.00;0.00;;;7.90;99.90;;;;;;5099912;28;20516;-77
2022/11/03 02:31:07;;;;;;;0.00;0.00;;;7.90;99.90;;;;;;5090059;28;20026;-77
2022/11/03 02:33:57;;;;;;;0.08;0.08;;;7.80;99.90;;;;;;5086275;28;20476;-76
2022/11/03 02:37:00;;;;;;;0.10;0.10;;;7.80;99.90;;;;;;5086643;28;20506;-77
2022/11/03 02:39:41;;;;;;;0.10;0.10;;;7.80;99.90;;;;;;5089728;28;20076;-77
2022/11/03 02:42:07;;;;;;;0.00;0.00;;;7.80;99.90;;;;;;5089213;28;20580;-77
2022/11/03 02:44:35;;;;;;;2.08;1.98;;;7.70;99.90;;;;;;5090507;28;20023;-77
2022/11/03 02:47:08;;;;;;;0.10;0.10;;;7.70;99.90;;;;;;5088950;28;20215;-77
2022/11/03 02:49:39;;;;;;;0.10;0.10;;;7.70;99.90;;;;;;5087797;28;20055;-77
2022/11/03 02:52:06;;;;;;;0.20;0.20;;;9.20;99.90;;;;;;5087961;28;20638;-77
2022/11/03 02:54:44;;;;;;;0.10;0.10;;;7.50;99.90;;;;;;5088894;28;20020;-77
2022/11/03 02:57:20;;;;;;;0.00;0.00;;;7.50;99.90;;;;;;5092562;28;20035;-77
2022/11/03 02:59:57;;;;;;;0.10;0.10;;;7.40;99.90;;;;;;5097171;28;20119;-77
2022/11/03 03:02:46;;;;;;;0.00;0.00;;;7.40;99.90;;;;;;5101508;28;20039;-76
2022/11/03 03:05:18;;;;;;;0.10;0.10;;;7.50;99.90;;;;;;5101502;28;20110;-77
2022/11/03 03:07:49;;;;;;;0.00;0.00;;;7.40;99.90;;;;;;5101482;28;20024;-77
2022/11/03 03:10:24;;;;;;;0.00;0.00;;;5.10;99.90;;;;;;5101524;28;20111;-76
2022/11/03 03:13:01;;;;;;;0.00;0.00;;;7.40;99.90;;;;;;5101658;28;20016;-77
2022/11/03 03:16:08;;;;;;;0.10;0.10;;;7.50;99.90;;;;;;5100724;28;20020;-77
2022/11/03 03:18:36;;;;;;;0.10;0.10;;;7.40;99.90;;;;;;5101548;28;20046;-77
2022/11/03 03:21:11;;;;;;;0.50;0.50;;;7.50;99.90;;;;;;5100483;28;20023;-77
2022/11/03 03:23:46;;;;;;;0.00;0.00;;;7.60;99.90;;;;;;5099369;28;20018;-77
2022/11/03 03:26:33;;;;;;;0.08;0.08;;;7.60;99.90;;;;;;5101376;28;20012;-77
2022/11/03 03:29:28;;;;;;;0.10;0.10;;;7.70;99.90;;;;;;5104619;28;20004;-77
2022/11/03 03:31:57;;;;;;;0.00;0.00;;;7.70;99.90;;;;;;5105077;28;20062;-77
2022/11/03 03:34:25;;;;;;;0.00;0.00;;;7.70;99.90;;;;;;5104115;28;20000;-77
2022/11/03 03:36:55;;;;;;;0.20;0.20;;;7.50;99.90;;;;;;5103817;28;20023;-77
2022/11/03 03:39:25;;;;;;;0.00;0.00;;;7.50;99.90;;;;;;5105984;28;20032;-77
2022/11/03 03:41:52;;;;;;;0.00;0.00;;;7.40;99.90;;;;;;5106016;28;20020;-77
2022/11/03 03:44:20;;;;;;;0.00;0.00;;;7.40;99.90;;;;;;5104731;28;20031;-77
2022/11/03 03:46:59;;;;;;;0.00;0.00;;;7.30;99.90;;;;;;5105373;28;20043;-77
2022/11/03 03:49:25;;;;;;;0.00;0.00;;;7.30;99.90;;;;;;5106357;28;20074;-77
2022/11/03 03:51:51;;;;;;;0.00;0.00;;;7.30;99.90;;;;;;5104615;28;20016;-77
2022/11/03 03:54:18;;;;;;;0.10;0.10;;;7.20;99.90;;;;;;5102194;28;20093;-77
2022/11/03 03:57:01;;;;;;;0.52;0.52;;;7.20;99.90;;;;;;5102767;28;20039;-77
2022/11/03 03:59:27;;;;;;;7.10;6.88;;;7.20;99.90;;;;;;5099361;28;20016;-77
2022/11/03 04:01:56;;;;;;;0.15;0.15;;;7.20;99.90;;;;;;5103583;28;20036;-77
2022/11/03 04:04:22;;;;;;;2.40;2.30;;;7.30;99.90;;;;;;5100991;28;20039;-77
2022/11/03 04:06:48;;;;;;;0.10;0.10;;;7.30;99.90;;;;;;5099309;28;20288;-77
2022/11/03 04:09:13;;;;;;;0.00;0.00;;;7.30;99.90;;;;;;5102995;28;20008;-77
2022/11/03 04:22:53;;;;;;;1.73;1.65;;;7.40;99.90;;;;;;5082490;28;20027;-77
2022/11/03 04:25:54;;;;;;;0.13;0.13;;;7.30;99.90;;;;;;5079301;28;20023;-77
2022/11/03 04:28:44;;;;;;;0.00;0.00;;;7.20;99.90;;;;;;5081265;28;20647;-77
2022/11/03 04:31:16;;;;;;;0.13;0.13;;;7.20;99.90;;;;;;5081919;28;20506;-77
2022/11/03 04:33:43;;;;;;;0.17;0.17;;;7.20;99.90;;;;;;5080772;28;20017;-78
2022/11/03 04:36:20;;;;;;;0.63;0.63;;;7.30;99.90;;;;;;5097580;28;20021;-77
2022/11/03 04:38:51;;;;;;;0.00;0.00;;;7.30;99.90;;;;;;5080550;28;20025;-77
2022/11/03 04:41:21;;;;;;;0.00;0.00;;;7.40;99.90;;;;;;5081272;28;20040;-77
2022/11/03 04:43:48;;;;;;;0.00;0.00;;;7.40;99.90;;;;;;5081761;28;20054;-76
2022/11/03 04:46:27;;;;;;;0.00;0.00;;;7.40;99.90;;;;;;5082503;28;20052;-77
2022/11/03 04:48:57;;;;;;;0.10;0.10;;;7.40;99.90;;;;;;5084550;28;20023;-76
2022/11/03 04:51:48;;;;;;;0.10;0.10;;;7.30;99.90;;;;;;5083277;28;20035;-76
2022/11/03 04:54:18;;;;;;;0.03;0.03;;;7.30;99.90;;;;;;5081439;28;20047;-77
2022/11/03 04:56:44;;;;;;;0.00;0.00;;;7.30;99.90;;;;;;5097341;28;20018;-76
2022/11/03 04:59:11;;;;;;;0.00;0.00;;;10.10;99.90;;;;;;5097642;22;20019;-78
2022/11/03 05:01:37;;;;;;;0.05;0.05;;;7.20;99.90;;;;;;5077457;28;20070;-76
2022/11/03 05:04:11;;;;;;;7.82;3.53;;;7.10;99.90;;;;;;5082886;28;20021;-76
2022/11/03 05:06:36;;;;;;;0.00;0.00;;;7.00;99.90;;;;;;5080345;28;20020;-75
2022/11/03 05:09:11;;;;;;;3.30;2.72;;;6.90;99.90;;;;;;5078547;28;20166;-79
2022/11/03 05:11:47;;;;;;;0.10;0.10;;;6.90;99.90;;;;;;5083284;28;20009;-75
2022/11/03 05:14:26;;;;;;;92.53;84.55;;;6.80;99.90;;;;;;5079442;28;20024;-78
2022/11/03 05:16:53;;;;;;;0.00;0.00;;;6.80;99.90;;;;;;5074604;28;20009;-77
2022/11/03 05:19:28;;;;;;;0.00;0.00;;;6.70;99.90;;;;;;5076672;28;20070;-78
2022/11/03 05:21:57;;;;;;;0.03;0.03;;;6.70;99.90;;;;;;5074702;28;20024;-77
2022/11/03 05:24:26;;;;;;;0.10;0.10;;;6.70;99.90;;;;;;5065926;28;20103;-77
2022/11/03 05:26:54;;;;;;;0.00;0.00;;;6.80;99.90;;;;;;5055664;28;20209;-78
2022/11/03 05:29:33;;;;;;;0.10;0.10;;;6.80;99.90;;;;;;5055833;28;20041;-78
2022/11/03 05:31:59;;;;;;;0.00;0.00;;;6.80;99.90;;;;;;5062404;28;20028;-77
2022/11/03 05:34:28;;;;;;;0.00;0.00;;;6.70;99.90;;;;;;5059503;28;20017;-79
2022/11/03 05:36:54;;;;;;;0.00;0.00;;;;;;;;;;5059007;28;20031;-78
2022/11/03 05:39:33;;;;;;;1.27;1.27;;;6.90;99.90;;;;;;5060738;28;20045;-78
2022/11/03 05:42:00;;;;;;;0.10;0.10;;;6.90;99.90;;;;;;5058337;28;20659;-77
2022/11/03 05:44:35;;;;;;;0.10;0.10;;;6.90;99.90;;;;;;5036097;28;20109;-78
2022/11/03 05:47:11;;;;;;;0.10;0.10;;;7.00;99.90;;;;;;5042044;28;20089;-77
2022/11/03 05:49:38;;;;;;;0.10;0.10;;;7.00;99.90;;;;;;5045694;28;20025;-77
2022/11/03 05:52:12;;;;;;;0.22;0.22;;;6.90;99.90;;;;;;5043420;28;20029;-77
2022/11/03 05:54:39;;;;;;;0.10;0.10;;;6.90;99.90;;;;;;5045986;28;20064;-77
2022/11/03 05:57:15;;;;;;;0.00;0.00;;;6.90;99.90;;;;;;5045588;28;20053;-77
2022/11/03 06:00:14;;;;;;;0.00;0.00;;;7.00;99.90;;;;;;5050441;28;20032;-77
2022/11/03 06:02:41;;;;;;;0.00;0.00;;;7.10;99.90;;;;;;5049643;28;20009;-77
2022/11/03 06:05:25;;;;;;;0.00;0.00;;;7.20;99.90;;;;;;5050177;28;20021;-77
2022/11/03 06:07:54;;;;;;;0.00;0.00;;;7.30;99.90;;;;;;5051814;28;20045;-77
2022/11/03 06:10:43;;;;;;;0.00;0.00;;;7.30;99.90;;;;;;5051391;28;20018;-77
2022/11/03 06:13:30;;;;;;;0.00;0.00;;;7.20;99.90;;;;;;5035151;28;20083;-77
2022/11/03 06:16:01;;;;;;;0.10;0.10;;;7.30;99.90;;;;;;5039367;28;20032;-78
2022/11/03 06:18:37;;;;;;;0.00;0.00;;;7.40;99.90;;;;;;5033528;28;20022;-78
2022/11/03 06:21:11;;;;;;;0.08;0.08;;;7.40;99.90;;;;;;5042264;28;20051;-77
2022/11/03 06:23:39;;;;;;;0.10;0.10;;;7.50;99.90;;;;;;5028936;28;20556;-76
2022/11/03 06:26:38;;;;;;;0.00;0.00;;;7.50;99.90;;;;;;5025130;28;20021;-77
2022/11/03 06:29:15;;;;;;;0.00;0.00;;;7.60;99.90;;;;;;5023644;28;20025;-76
2022/11/03 06:31:55;;;;;;;0.00;0.00;;;5.00;99.90;;;;;;5033108;28;20017;-77
2022/11/03 06:34:49;;;;;;;0.10;0.10;;;7.70;99.90;;;;;;5034742;28;20029;-77
2022/11/03 06:37:23;;;;;;;0.00;0.00;;;7.70;99.90;;;;;;5040535;28;20024;-78
2022/11/03 06:39:55;;;;;;;;;;;7.80;99.90;;;;;;5037662;28;20014;-76
2022/11/03 06:42:21;;;;;;;0.10;0.10;;;8.00;99.90;;;;;;5036620;28;20603;-79
2022/11/03 06:44:50;;;;;;;0.05;0.05;;;8.00;99.90;;;;;;5033253;28;20097;-79
2022/11/03 06:47:26;;;;;;;0.00;0.00;;;8.10;99.90;;;;;;5037377;28;20109;-79
2022/11/03 06:49:57;;;;;;;0.00;0.00;;;8.30;99.90;;;;;;5035703;28;20049;-77
2022/11/03 06:52:38;;;;;;;1.98;1.55;;;8.30;99.90;;;;;;5033392;28;20025;-78
2022/11/03 06:55:09;;;;;;;0.93;0.90;;;10.40;99.90;;;;;;5034970;28;20049;-77
2022/11/03 06:57:43;;;;;;;0.20;0.20;;;8.40;99.90;;;;;;5033570;28;20021;-77
2022/11/03 07:00:15;;;;;;;0.00;0.00;;;6.70;99.90;;;;;;5033126;28;20036;-77
2022/11/03 07:03:20;;;;;;;0.20;0.20;;;8.60;99.90;;;;;;5035127;28;20044;-77
2022/11/03 07:05:46;;;;;;;0.00;0.00;;;8.70;99.90;;;;;;5037417;28;20036;-77
2022/11/03 07:08:21;;;;;;;0.10;0.10;;;8.80;99.90;;;;;;5035107;28;20025;-77
2022/11/03 07:10:50;;;;;;;15.60;14.80;;;9.00;99.90;;;;;;5032929;28;20028;-78
2022/11/03 07:13:23;;;;;;;0.10;0.10;;;9.00;99.90;;;;;;5033742;28;20664;-80
2022/11/03 07:15:49;;;;;;;0.10;0.10;;;9.10;99.90;;;;;;5035627;28;20030;-81
2022/11/03 07:18:28;;;;;;;5.90;5.68;;;9.10;99.90;;;;;;5033386;28;20611;-78
2022/11/03 07:20:56;;;;;;;0.10;0.10;;;9.20;99.90;;;;;;5046992;28;20052;-78
2022/11/03 07:23:34;;;;;;;0.10;0.10;;;9.30;99.90;;;;;;5042305;28;20017;-78
2022/11/03 07:26:01;;;;;;;0.10;0.10;;;9.40;99.90;;;;;;5052729;28;20056;-77
2022/11/03 07:28:40;;;;;;;0.25;0.25;;;9.50;99.90;;;;;;5052137;28;20044;-78
2022/11/03 07:31:17;;;;;;;0.10;0.10;;;9.60;99.90;;;;;;5053430;28;20025;-77
2022/11/03 07:33:43;;;;;;;0.68;0.68;;;9.60;99.90;;;;;;5061810;23;20695;-77
2022/11/03 07:36:15;;;;;;;0.00;0.00;;;9.80;99.90;;;;;;5195744;22;20048;-77
2022/11/03 07:39:04;;;;;;;0.10;0.10;;;9.90;99.90;;;;;;5100128;28;20035;-78
2022/11/03 07:41:59;;;;;;;0.10;0.10;;;10.10;99.90;;;;;;5117175;28;20058;-78
2022/11/03 07:44:28;;;;;;;1.08;1.08;;;10.50;99.90;;;;;;5034779;28;20030;-77
2022/11/03 07:47:10;;;;;;;0.57;0.55;;;10.40;99.90;;;;;;5028177;28;20034;-78
2022/11/03 07:49:39;;;;;;;6.78;6.50;;;10.50;99.90;;;;;;5029377;28;20064;-78
2022/11/03 07:52:30;;;;;;;0.10;0.10;;;10.60;99.90;;;;;;5031274;28;20035;-77
2022/11/03 07:55:21;;;;;;;22.13;12.40;;;10.80;99.90;;;;;;5033898;28;20022;-78
2022/11/03 07:57:54;;;;;;;0.10;0.10;;;11.00;99.90;;;;;;5029154;28;20029;-78
2022/11/03 08:00:21;;;;;;;0.10;0.10;;;11.10;99.90;;;;;;5032368;28;20022;-77
2022/11/03 08:02:59;;;;;;;0.10;0.10;;;11.20;99.90;;;;;;5028481;28;20010;-79
2022/11/03 08:05:28;;;;;;;0.10;0.10;;;11.40;99.90;;;;;;5009804;28;20037;-78
2022/11/03 08:08:00;;;;;;;0.30;0.30;;;11.60;99.90;;;;;;5003261;28;20038;-79
2022/11/03 08:10:29;;;;;;;0.28;0.28;;;11.70;99.90;;;;;;4993249;28;20029;-80
2022/11/03 08:12:55;;;;;;;0.17;0.17;;;11.80;99.90;;;;;;5076551;22;20055;-78
2022/11/03 08:15:21;;;;;;;0.25;0.25;;;12.40;99.90;;;;;;5092024;28;20016;-78
2022/11/03 08:17:50;;;;;;;0.20;0.20;;;12.10;99.90;;;;;;5091803;28;20028;-78
2022/11/03 08:20:22;;;;;;;6.47;6.03;;;12.00;99.90;;;;;;5091938;28;20054;-78
2022/11/03 08:30:06;;;;;;;2.40;2.30;;;12.40;99.90;;;;;;5118095;28;20752;-76
2022/11/03 08:42:38;;;;;;;0.20;0.20;;;14.60;99.90;;;;;;5101069;28;20522;-84
2022/11/03 08:45:05;;;;;;;2.42;2.25;;;13.90;99.90;;;;;;5105203;28;20008;-80
2022/11/03 08:47:31;;;;;;;0.10;0.10;;;13.50;99.90;;;;;;5089023;28;20472;-83
2022/11/03 08:49:56;;;;;;;0.35;0.35;;;13.60;99.90;;;;;;5104394;28;20046;-83
2022/11/03 08:52:23;;;;;;;0.30;0.30;;;13.70;99.90;;;;;;5106586;28;20062;-79
2022/11/03 08:54:49;;;;;;;0.22;0.22;;;13.60;99.90;;;;;;5106777;28;20024;-80
2022/11/03 08:57:15;;;;;;;1.05;1.02;;;13.60;99.90;;;;;;5084832;28;20078;-79
2022/11/03 08:59:40;;;;;;;1.10;1.10;;;13.80;99.90;;;;;;5103518;28;20185;-85
2022/11/03 09:02:06;;;;;;;0.30;0.30;;;13.90;99.90;;;;;;5103740;28;20081;-79
2022/11/03 09:04:32;;;;;;;0.32;0.32;;;14.00;99.90;;;;;;5105662;28;20027;-83
2022/11/03 09:07:01;;;;;;;0.20;0.20;;;14.00;99.90;;;;;;5101069;28;20042;-79
2022/11/03 09:09:29;;;;;;;0.20;0.20;;;14.00;99.90;;;;;;5102862;28;20016;-92
2022/11/03 09:11:55;;;;;;;0.30;0.30;;;14.10;99.80;;;;;;5101533;28;20061;-84
2022/11/03 09:14:21;;;;;;;2.40;2.28;;;14.10;99.90;;;;;;5099075;28;20047;-90
2022/11/03 09:16:47;;;;;;;0.30;0.30;;;14.50;98.90;;;;;;5100771;28;20671;-83
2022/11/03 09:19:12;;;;;;;5.97;5.68;;;14.50;99.10;;;;;;5101410;28;20105;-85
2022/11/03 09:21:38;;;;;;;0.10;0.10;;;14.40;98.80;;;;;;5099914;28;20561;-85
2022/11/03 09:24:04;;;;;;;3.10;2.85;;;14.50;99.00;;;;;;5104465;28;20035;-88
2022/11/03 09:26:30;;;;;;;1.85;1.75;;;14.50;98.90;;;;;;5103228;28;20020;-79
2022/11/03 09:28:56;;;;;;;1.30;1.20;;;14.50;98.70;;;;;;5084763;28;20046;-82
2022/11/03 09:31:24;;;;;;;4.15;3.85;;;14.60;98.80;;;;;;5102957;28;20099;-85
2022/11/03 09:33:51;;;;;;;2.38;2.13;;;14.70;98.40;;;;;;5105639;28;20016;-84
2022/11/03 09:36:17;;;;;;;4.53;4.25;;;14.80;98.40;;;;;;5104759;28;20031;-80
2022/11/03 09:38:43;;;;;;;0.82;0.82;;;14.90;97.90;;;;;;5104513;28;20015;-90
2022/11/03 09:41:16;;;;;;;0.43;0.43;;;15.00;98.10;;;;;;5103912;28;20034;-85
2022/11/03 09:43:43;;;;;;;3.30;3.03;;;15.00;97.80;;;;;;5084906;28;20231;-87
2022/11/03 09:46:10;;;;;;;0.20;0.20;;;15.30;97.30;;;;;;5103058;28;20563;-81
2022/11/03 09:48:35;;;;;;;0.20;0.20;;;15.40;97.20;;;;;;5108080;23;20164;-91
2022/11/03 09:51:01;;;;;;;4.13;3.80;;;15.50;97.30;;;;;;5102583;28;20653;-82
2022/11/03 09:53:30;;;;;;;8.35;5.25;;;15.70;97.00;;;;;;5083561;28;20016;-86
2022/11/03 09:55:55;;;;;;;2.70;2.50;;;15.80;97.00;;;;;;5101673;28;20542;-79
2022/11/03 09:58:21;;;;;;;0.98;0.98;;;15.80;96.20;;;;;;5101052;28;20019;-84
2022/11/03 10:00:47;;;;;;;0.40;0.40;;;16.00;96.00;;;;;;5100650;28;20103;-78
2022/11/03 10:03:19;;;;;;;0.73;0.73;;;16.20;95.50;;;;;;5100415;28;20011;-78
2022/11/03 10:05:46;;;;;;;6.53;2.60;;;16.40;95.20;;;;;;5083346;28;20067;-78
2022/11/03 10:08:29;;;;;;;2.03;1.92;;;16.40;95.20;;;;;;5101552;28;20012;-81
2022/11/03 10:10:55;;;;;;;0.20;0.20;;;16.60;94.70;;;;;;5093922;28;20023;-88
2022/11/03 10:13:34;;;;;;;25.00;23.25;;;16.80;94.50;;;;;;5101574;28;20012;-90
2022/11/03 10:16:03;;;;;;;1.25;1.20;;;16.80;94.40;;;;;;5101836;28;20012;-80
2022/11/03 10:18:36;;;;;;;1.33;1.23;;;16.80;93.70;;;;;;5101112;28;20016;-78
2022/11/03 10:21:05;;;;;;;2.63;2.42;;;17.00;93.70;;;;;;5101501;28;20044;-82
2022/11/03 10:23:32;;;;;;;1.17;1.17;;;17.10;93.40;;;;;;5082754;28;20024;-81
2022/11/03 10:26:11;;;;;;;0.30;0.30;;;17.30;93.20;;;;;;5083089;28;20024;-81
2022/11/03 10:28:37;;;;;;;0.52;0.52;;;17.30;92.40;;;;;;5102498;28;20022;-79
2022/11/03 10:31:07;;;;;;;4.70;3.03;;;17.40;92.70;;;;;;5091663;28;20050;-78
2022/11/03 10:33:49;;;;;;;1.95;0.90;;;17.70;91.90;;;;;;5108278;28;20566;-81
2022/11/03 10:36:14;;;;;;;1.52;1.42;;;17.90;91.80;;;;;;5109918;28;20027;-80
2022/11/03 10:38:42;;;;;;;0.55;0.55;;;17.80;91.00;;;;;;5110841;28;20016;-83
2022/11/03 10:41:15;;;;;;;1.05;1.05;;;18.00;90.60;;;;;;5107787;28;20031;-80
2022/11/03 10:43:43;;;;;;;1.10;1.10;;;18.20;90.30;;;;;;5103919;28;20023;-88
2022/11/03 10:46:19;;;;;;;3.03;2.83;;;18.30;89.40;;;;;;5103604;28;20039;-79
2022/11/03 10:49:19;;;;;;;0.40;0.40;;;18.10;88.20;;;;;;5103518;28;20042;-80
2022/11/03 10:51:49;;;;;;;0.40;0.40;;;18.00;89.20;;;;;;5101474;28;20051;-79
2022/11/03 10:54:17;;;;;;;1.40;1.35;;;18.10;88.60;;;;;;5100841;28;20069;-79
2022/11/03 10:56:44;;;;;;;1.17;1.15;;;18.40;88.20;;;;;;5100859;28;20019;-82
2022/11/03 10:59:20;;;;;;;1.35;1.25;;;18.60;88.30;;;;;;5100392;28;20746;-82
2022/11/03 11:01:46;;;;;;;0.85;0.85;;;18.60;85.70;;;;;;5099744;28;20035;-81
2022/11/03 11:04:19;;;;;;;5.22;4.90;;;18.60;86.30;;;;;;5101385;28;20118;-75
2022/11/03 11:06:46;;;;;;;1.65;1.55;;;18.70;84.80;;;;;;5082680;28;20039;-81
2022/11/03 11:09:16;;;;;;;0.93;0.93;;;19.00;85.10;;;;;;5081938;28;20080;-79
2022/11/03 11:12:19;;;;;;;0.93;0.93;;;19.20;85.00;;;;;;5100247;28;20784;-80
2022/11/03 11:14:59;;;;;;;0.30;0.30;;;19.40;83.70;;;;;;5100036;28;20531;-81
2022/11/03 11:17:37;;;;;;;2.08;1.88;;;19.70;82.70;;;;;;5099938;28;20030;-83
2022/11/03 11:20:18;;;;;;;0.60;0.60;;;19.60;82.00;;;;;;5100023;28;20024;-80
2022/11/03 11:22:44;;;;;;;0.47;0.47;;;19.70;80.90;;;;;;5099945;28;20040;-79
2022/11/03 11:25:10;;;;;;;0.80;0.63;;;19.80;80.80;;;;;;5099972;28;20011;-77
2022/11/03 11:27:45;;;;;;;2.60;2.40;;;19.90;80.60;;;;;;5103125;28;20872;-85
2022/11/03 11:30:34;;;;;;;0.57;0.57;;;20.10;79.20;;;;;;5091119;28;20023;-77
2022/11/03 11:33:24;;;;;;;1.25;1.20;;;20.20;78.70;;;;;;5103808;28;20028;-81
2022/11/03 11:35:49;;;;;;;21.38;2.20;;;20.10;78.80;;;;;;5121022;28;20072;-77
2022/11/03 11:38:54;;;;;;;1.70;1.60;;;20.40;78.20;;;;;;5121742;28;20024;-85
2022/11/03 11:41:40;;;;;;;0.57;0.57;;;20.70;77.00;;;;;;5126117;28;20071;-85
2022/11/03 11:44:53;;;;;;;0.75;0.75;;;21.20;76.20;;;;;;5115052;28;20047;-89
2022/11/03 11:47:22;;;;;;;0.75;0.75;;;21.50;74.50;;;;;;5112304;28;20028;-84
2022/11/03 11:49:58;;;;;;;0.85;0.85;;;21.70;73.40;;;;;;5103596;28;20062;-83
2022/11/03 11:52:25;;;;;;;3.92;3.45;;;22.00;72.30;;;;;;5082956;28;20027;-88
2022/11/03 11:54:51;;;;;;;1.00;0.77;;;21.90;72.70;;;;;;5100738;28;20019;-83
2022/11/03 11:57:19;;;;;;;4.13;1.65;;;21.90;71.50;;;;;;5100186;28;20064;-81
2022/11/03 11:59:47;;;;;;;0.40;0.40;;;21.80;72.20;;;;;;5100544;28;20042;-78
2022/11/03 12:02:23;;;;;;;2.03;1.92;;;21.60;71.70;;;;;;5083742;28;20034;-81
2022/11/03 12:04:56;;;;;;;0.50;0.50;;;21.60;71.70;;;;;;5110522;28;20019;-76
2022/11/03 12:07:34;;;;;;;1.27;0.93;;;21.50;72.00;;;;;;5109652;28;20020;-80
2022/11/03 12:10:16;;;;;;;1.73;1.63;;;21.30;71.90;;;;;;5091460;28;20050;-77
2022/11/03 12:12:41;;;;;;;1.35;1.17;;;21.50;72.60;;;;;;5104177;28;20020;-78
2022/11/03 12:15:45;;;;;;;0.20;0.20;;;21.50;72.60;;;;;;5105398;28;20608;-84
2022/11/03 12:18:37;;;;;;;3.00;2.80;;;21.50;72.20;;;;;;5105038;28;20031;-88
2022/11/03 12:21:05;;;;;;;1.75;1.48;;;21.50;72.10;;;;;;5105409;28;20027;-90
2022/11/03 12:23:35;;;;;;;0.98;0.98;;;21.50;72.40;;;;;;5085650;28;20676;-79
2022/11/03 12:26:03;;;;;;;0.20;0.20;;;21.50;71.80;;;;;;5099369;28;20020;-80
2022/11/03 12:28:33;;;;;;;1.75;0.82;;;23.60;72.10;;;;;;5098802;28;20251;-84
2022/11/03 12:30:59;;;;;;;0.77;0.73;;;21.70;70.60;;;;;;5099704;28;20306;-76
2022/11/03 12:33:26;;;;;;;8.68;2.33;;;21.80;71.00;;;;;;5098867;28;20646;-79
2022/11/03 12:35:52;;;;;;;0.68;0.68;;;21.80;70.20;;;;;;5099236;28;20047;-77
2022/11/03 12:38:18;;;;;;;2.83;2.63;;;21.70;69.90;;;;;;5098666;28;20020;-79
2022/11/03 12:40:44;;;;;;;4.82;2.55;;;21.80;69.80;;;;;;5098721;28;20036;-83
2022/11/03 12:43:10;;;;;;;1.35;0.82;;;22.00;70.30;;;;;;5098508;28;20024;-74
2022/11/03 12:45:35;;;;;;;3.13;2.90;;;22.10;70.20;;;;;;5099037;28;20011;-76
2022/11/03 12:48:01;;;;;;;1.13;1.13;;;22.30;69.40;;;;;;5098610;28;20028;-80
2022/11/03 12:50:27;;;;;;;1.50;1.40;;;22.40;69.00;;;;;;5080468;28;20039;-86
2022/11/03 12:52:52;;;;;;;0.70;0.70;;;22.50;68.70;;;;;;5099099;28;20019;-76
2022/11/03 12:55:18;;;;;;;0.20;0.20;;;22.50;68.50;;;;;;5099073;28;20103;-84
2022/11/03 12:57:45;;;;;;;4.18;2.42;;;22.50;68.50;;;;;;5098824;28;20256;-77
2022/11/03 13:00:11;;;;;;;0.88;0.88;;;22.40;69.40;;;;;;5099109;28;20031;-78
2022/11/03 13:02:37;;;;;;;1.38;1.35;;;22.20;69.70;;;;;;5099643;28;20023;-84
2022/11/03 13:05:04;;;;;;;0.85;0.82;;;22.10;70.20;;;;;;5099271;28;20019;-88
2022/11/03 13:07:30;;;;;;;1.25;1.15;;;22.30;69.10;;;;;;5098989;28;20103;-75
2022/11/03 13:09:56;;;;;;;0.20;0.20;;;22.50;69.20;;;;;;5081113;28;20051;-76
2022/11/03 13:12:31;;;;;;;0.20;0.20;;;;;;;;;;5098962;28;20020;-77
2022/11/03 13:15:01;;;;;;;0.20;0.20;;;22.80;68.80;;;;;;5098255;28;20026;-77
2022/11/03 13:17:30;;;;;;;4.20;3.67;;;23.20;68.30;;;;;;5099484;28;20019;-90
2022/11/03 13:19:56;;;;;;;1.15;1.10;;;23.30;67.50;;;;;;5098992;28;20047;-79
2022/11/03 13:22:22;;;;;;;2.22;2.13;;;23.40;67.80;;;;;;5099190;28;20043;-82
2022/11/03 13:24:48;;;;;;;1.38;1.38;;;23.70;66.30;;;;;;5099360;28;20050;-82
2022/11/03 13:27:14;;;;;;;5.68;5.07;;;23.80;65.30;;;;;;5099087;28;20550;-85
2022/11/03 13:29:40;;;;;;;0.20;0.20;;;23.90;66.30;;;;;;5098988;28;20024;-79
2022/11/03 13:32:07;;;;;;;5.00;1.30;;;24.10;65.10;;;;;;5098397;28;20430;-82
2022/11/03 13:34:32;;;;;;;1.17;1.08;;;24.30;64.90;;;;;;5098126;28;20023;-76
2022/11/03 13:36:58;;;;;;;3.65;3.35;;;24.90;64.50;;;;;;5079629;28;20012;-75
2022/11/03 13:39:24;;;;;;;2.60;2.50;;;24.20;63.50;;;;;;5098449;28;20030;-84
2022/11/03 13:41:50;;;;;;;1.33;1.25;;;23.90;64.00;;;;;;5099285;28;20441;-81
2022/11/03 13:49:27;;;;;;;0.38;0.38;;;;;;;;;;5910555;22;20044;-93
2022/11/03 13:51:53;;;;;;;0.75;0.75;;;24.70;63.00;;;;;;5060802;28;20027;-91
2022/11/03 13:54:18;;;;;;;0.22;0.22;;;25.00;62.50;;;;;;5078413;28;20166;-79
2022/11/03 13:56:44;;;;;;;7.55;7.00;;;25.20;61.90;;;;;;5060480;28;20675;-92
2022/11/03 13:59:10;;;;;;;4.28;2.50;;;25.40;61.70;;;;;;5078563;28;20149;-76